createdAt,value
2019-04-28T00:01:07.023Z,16.00
2019-04-28T00:03:35.967Z,15.80
2019-04-28T00:06:05.074Z,15.60
2019-04-28T00:08:33.938Z,15.50
2019-04-28T00:11:02.944Z,15.40
2019-04-28T00:13:32.182Z,15.30
2019-04-28T00:16:01.720Z,15.30
2019-04-28T00:18:31.737Z,15.30
2019-04-28T00:21:25.756Z,15.40
2019-04-28T00:24:01.771Z,15.50
2019-04-28T00:26:42.034Z,15.70
2019-04-28T00:29:11.214Z,15.80
2019-04-28T00:31:41.358Z,15.80
2019-04-28T00:34:11.457Z,15.80
2019-04-28T00:36:43.059Z,15.80
2019-04-28T00:39:12.380Z,15.90
2019-04-28T00:41:42.093Z,16.10
2019-04-28T00:44:12.115Z,16.10
2019-04-28T00:46:42.735Z,16.20
2019-04-28T00:49:11.979Z,16.20
2019-04-28T00:51:41.571Z,16.20
2019-04-28T00:54:12.044Z,16.10
2019-04-28T00:56:42.025Z,16.20
2019-04-28T00:59:11.946Z,16.20
2019-04-28T01:01:56.169Z,16.20
2019-04-28T01:04:24.994Z,16.20
2019-04-28T01:06:54.818Z,16.20
2019-04-28T01:09:23.910Z,16.10
2019-04-28T01:11:53.348Z,16.20
2019-04-28T01:14:43.526Z,16.30
2019-04-28T01:17:43.575Z,16.30
2019-04-28T01:20:14.546Z,16.20
2019-04-28T01:22:43.489Z,16.10
2019-04-28T01:25:12.545Z,16.00
2019-04-28T01:27:53.347Z,15.90
2019-04-28T01:30:51.651Z,15.90
2019-04-28T01:33:37.766Z,15.80
2019-04-28T01:36:06.784Z,15.80
2019-04-28T01:38:35.865Z,15.80
2019-04-28T01:41:04.816Z,15.90
2019-04-28T01:43:33.630Z,16.00
2019-04-28T01:46:02.618Z,16.00
2019-04-28T01:48:31.627Z,16.10
2019-04-28T01:51:00.582Z,16.10
2019-04-28T01:53:30.851Z,16.20
2019-04-28T01:56:00.232Z,16.20
2019-04-28T01:58:29.720Z,16.10
2019-04-28T02:00:59.587Z,16.00
2019-04-28T02:03:30.567Z,16.00
2019-04-28T02:06:00.146Z,16.00
2019-04-28T02:08:30.242Z,15.90
2019-04-28T02:11:00.107Z,15.80
2019-04-28T02:13:29.978Z,15.70
2019-04-28T02:16:00.097Z,15.60
2019-04-28T02:18:30.065Z,15.50
2019-04-28T02:21:06.598Z,15.40
2019-04-28T02:23:36.400Z,15.40
2019-04-28T02:26:05.341Z,15.30
2019-04-28T02:28:34.200Z,15.20
2019-04-28T02:31:03.043Z,15.20
2019-04-28T02:33:31.863Z,15.20
2019-04-28T02:36:01.387Z,15.20
2019-04-28T02:38:33.892Z,15.20
2019-04-28T02:41:01.352Z,15.40
2019-04-28T02:43:30.896Z,15.40
2019-04-28T02:46:00.684Z,15.30
2019-04-28T02:48:31.005Z,15.30
2019-04-28T02:51:25.031Z,15.30
2019-04-28T02:53:53.991Z,15.30
2019-04-28T02:56:22.914Z,15.30
2019-04-28T02:58:51.823Z,15.40
2019-04-28T03:01:25.977Z,15.50
2019-04-28T03:03:51.455Z,15.50
2019-04-28T03:06:20.849Z,15.50
2019-04-28T03:08:50.657Z,15.60
2019-04-28T03:11:20.367Z,15.70
2019-04-28T03:13:51.121Z,15.90
2019-04-28T03:16:22.949Z,15.80
2019-04-28T03:18:51.578Z,15.80
2019-04-28T03:21:21.491Z,15.80
2019-04-28T03:23:51.631Z,15.80
2019-04-28T03:26:30.835Z,15.80
2019-04-28T03:29:05.243Z,15.70
2019-04-28T03:32:18.141Z,15.60
2019-04-28T03:34:44.609Z,15.60
2019-04-28T03:37:13.858Z,15.50
2019-04-28T03:39:42.916Z,15.60
2019-04-28T03:42:11.959Z,15.50
2019-04-28T03:44:41.452Z,15.60
2019-04-28T03:47:10.866Z,15.60
2019-04-28T03:49:43.226Z,15.50
2019-04-28T03:52:10.981Z,15.40
2019-04-28T03:54:41.181Z,15.40
2019-04-28T03:57:11.331Z,15.40
2019-04-28T03:59:43.553Z,15.40
2019-04-28T04:02:11.676Z,15.40
2019-04-28T04:04:41.619Z,15.30
2019-04-28T04:07:11.241Z,15.30
2019-04-28T04:09:51.502Z,15.20
2019-04-28T04:12:41.239Z,15.20
2019-04-28T04:15:30.909Z,15.30
2019-04-28T04:18:02.679Z,15.20
2019-04-28T04:20:31.717Z,15.30
2019-04-28T04:23:01.522Z,15.30
2019-04-28T04:25:31.529Z,15.40
2019-04-28T04:28:03.833Z,15.30
2019-04-28T04:30:31.504Z,15.30
2019-04-28T04:33:01.334Z,15.30
2019-04-28T04:35:31.609Z,15.30
2019-04-28T04:38:00.881Z,15.20
2019-04-28T04:40:31.799Z,15.20
2019-04-28T04:43:01.506Z,15.10
2019-04-28T04:45:30.898Z,15.10
2019-04-28T04:48:00.711Z,15.10
2019-04-28T04:50:31.357Z,15.10
2019-04-28T04:53:02.686Z,15.20
2019-04-28T04:55:31.261Z,15.20
2019-04-28T04:58:00.905Z,15.20
2019-04-28T05:00:43.410Z,15.30
2019-04-28T05:03:17.490Z,15.30
2019-04-28T05:05:46.501Z,15.40
2019-04-28T05:08:15.719Z,15.30
2019-04-28T05:10:45.097Z,15.30
2019-04-28T05:13:13.971Z,15.30
2019-04-28T05:15:42.875Z,15.30
2019-04-28T05:18:11.758Z,15.30
2019-04-28T05:20:40.673Z,15.30
2019-04-28T05:23:22.845Z,15.20
2019-04-28T05:25:51.767Z,15.20
2019-04-28T05:28:20.585Z,15.20
2019-04-28T05:30:50.260Z,15.20
2019-04-28T05:33:31.948Z,15.20
2019-04-28T05:36:02.925Z,15.20
2019-04-28T05:38:30.429Z,15.20
2019-04-28T05:41:02.410Z,15.20
2019-04-28T05:43:30.483Z,15.10
2019-04-28T05:46:00.287Z,15.10
2019-04-28T05:48:49.460Z,15.00
2019-04-28T05:51:20.390Z,15.10
2019-04-28T05:54:09.867Z,15.10
2019-04-28T05:57:03.595Z,15.00
2019-04-28T06:00:03.337Z,15.00
2019-04-28T06:02:35.544Z,15.00
2019-04-28T06:05:04.789Z,14.90
2019-04-28T06:07:51.380Z,14.90
2019-04-28T06:10:20.326Z,15.00
2019-04-28T06:12:49.650Z,14.90
2019-04-28T06:15:20.341Z,14.90
2019-04-28T06:17:49.822Z,14.90
2019-04-28T06:20:20.103Z,14.90
2019-04-28T06:22:49.649Z,14.90
2019-04-28T06:25:18.673Z,15.00
2019-04-28T06:27:49.303Z,15.00
2019-04-28T06:30:18.565Z,15.00
2019-04-28T06:32:47.571Z,15.00
2019-04-28T06:35:16.697Z,15.00
2019-04-28T06:37:45.648Z,15.00
2019-04-28T06:40:14.634Z,15.00
2019-04-28T06:42:43.540Z,15.00
2019-04-28T06:45:12.555Z,15.00
2019-04-28T06:47:41.477Z,15.00
2019-04-28T06:50:10.547Z,15.00
2019-04-28T06:52:39.405Z,15.00
2019-04-28T06:55:08.404Z,15.10
2019-04-28T06:57:37.439Z,15.00
2019-04-28T07:00:07.363Z,15.10
2019-04-28T07:02:36.286Z,15.00
2019-04-28T07:05:05.732Z,15.10
2019-04-28T07:07:34.638Z,15.20
2019-04-28T07:10:04.230Z,15.20
2019-04-28T07:12:33.430Z,15.30
2019-04-28T07:15:02.379Z,15.40
2019-04-28T07:17:31.373Z,15.50
2019-04-28T07:20:14.277Z,15.50
2019-04-28T07:22:43.260Z,15.50
2019-04-28T07:25:12.266Z,15.50
2019-04-28T07:27:44.034Z,15.50
2019-04-28T07:30:16.031Z,15.50
2019-04-28T07:32:44.870Z,15.40
2019-04-28T07:35:14.279Z,15.40
2019-04-28T07:37:43.298Z,15.40
2019-04-28T07:40:12.278Z,15.30
2019-04-28T07:42:41.198Z,15.30
2019-04-28T07:45:10.241Z,15.20
2019-04-28T07:47:39.186Z,15.10
2019-04-28T07:50:08.250Z,15.10
2019-04-28T07:52:45.540Z,15.10
2019-04-28T07:55:14.638Z,15.10
2019-04-28T07:57:43.543Z,15.10
2019-04-28T08:00:15.958Z,15.00
2019-04-28T08:02:44.882Z,15.00
2019-04-28T08:05:13.813Z,15.00
2019-04-28T08:08:01.927Z,15.00
2019-04-28T08:10:30.842Z,15.00
2019-04-28T08:12:59.870Z,15.00
2019-04-28T08:15:28.686Z,15.00
2019-04-28T08:17:57.697Z,15.00
2019-04-28T08:20:27.061Z,15.00
2019-04-28T08:22:56.049Z,14.90
2019-04-28T08:25:25.026Z,15.00
2019-04-28T08:27:54.043Z,15.10
2019-04-28T08:30:22.957Z,15.10
2019-04-28T08:32:56.604Z,15.10
2019-04-28T08:35:25.528Z,15.10
2019-04-28T08:37:54.433Z,15.10
2019-04-28T08:40:23.558Z,15.00
2019-04-28T08:45:48.342Z,15.00
2019-04-28T08:48:17.406Z,15.00
2019-04-28T08:50:46.378Z,15.00
2019-04-28T08:53:15.411Z,15.00
2019-04-28T08:55:44.370Z,15.10
2019-04-28T08:58:13.302Z,15.30
2019-04-28T09:00:42.227Z,15.40
2019-04-28T09:03:11.176Z,15.40
2019-04-28T09:05:40.282Z,15.40
2019-04-28T09:08:09.197Z,15.40
2019-04-28T09:10:38.383Z,15.30
2019-04-28T09:13:07.329Z,15.30
2019-04-28T09:15:36.362Z,15.40
2019-04-28T09:18:05.362Z,15.60
2019-04-28T09:20:34.294Z,15.70
2019-04-28T09:23:22.441Z,16.00
2019-04-28T09:25:51.353Z,16.20
2019-04-28T09:28:20.261Z,16.60
2019-04-28T09:30:49.229Z,17.00
2019-04-28T09:33:18.213Z,17.30
2019-04-28T09:35:47.264Z,17.60
2019-04-28T09:38:16.201Z,17.90
2019-04-28T09:40:45.202Z,18.10
2019-04-28T09:43:18.497Z,18.20
2019-04-28T09:46:04.787Z,18.10
2019-04-28T09:48:33.797Z,18.00
2019-04-28T09:51:02.770Z,17.80
2019-04-28T09:53:31.707Z,17.60
2019-04-28T09:56:00.578Z,17.50
2019-04-28T09:58:29.632Z,17.30
2019-04-28T10:00:58.644Z,17.10
2019-04-28T10:03:27.645Z,17.00
2019-04-28T10:05:56.639Z,17.00
2019-04-28T10:08:25.656Z,16.90
2019-04-28T10:10:54.689Z,16.90
2019-04-28T10:13:23.681Z,16.90
2019-04-28T10:15:53.097Z,16.90
2019-04-28T10:18:22.005Z,16.90
2019-04-28T10:20:51.001Z,16.90
2019-04-28T10:23:19.910Z,16.80
2019-04-28T10:25:48.978Z,16.90
2019-04-28T10:28:18.081Z,16.90
2019-04-28T10:30:47.051Z,16.80
2019-04-28T10:33:15.924Z,16.80
2019-04-28T10:35:44.906Z,16.80
2019-04-28T10:38:13.831Z,16.90
2019-04-28T10:41:05.172Z,16.80
2019-04-28T10:43:34.117Z,16.80
2019-04-28T10:46:03.545Z,16.80
2019-04-28T10:48:32.470Z,16.80
2019-04-28T10:51:01.626Z,16.90
2019-04-28T10:53:30.798Z,16.90
2019-04-28T10:55:59.728Z,17.00
2019-04-28T10:58:28.562Z,16.90
2019-04-28T11:00:57.569Z,16.90
2019-04-28T11:03:26.448Z,16.80
2019-04-28T11:05:55.458Z,16.70
2019-04-28T11:08:55.671Z,16.70
2019-04-28T11:11:26.515Z,16.60
2019-04-28T11:13:55.659Z,16.70
2019-04-28T11:16:28.528Z,16.80
2019-04-28T11:18:57.461Z,16.70
2019-04-28T11:21:26.386Z,16.70
2019-04-28T11:23:55.387Z,16.70
2019-04-28T11:26:24.451Z,16.70
2019-04-28T11:28:53.908Z,16.60
2019-04-28T11:31:22.795Z,16.60
2019-04-28T11:34:04.716Z,16.60
2019-04-28T11:36:33.828Z,16.70
2019-04-28T11:39:02.789Z,16.80
2019-04-28T11:41:31.729Z,16.70
2019-04-28T11:44:00.907Z,16.80
2019-04-28T11:46:29.913Z,16.70
2019-04-28T11:48:58.986Z,16.70
2019-04-28T11:51:28.272Z,16.60
2019-04-28T11:53:57.326Z,16.50
2019-04-28T11:56:27.439Z,16.40
2019-04-28T11:58:56.428Z,16.40
2019-04-28T12:01:25.662Z,16.30
2019-04-28T12:03:58.424Z,16.10
2019-04-28T12:06:27.382Z,16.00
2019-04-28T12:09:00.855Z,16.00
2019-04-28T12:11:32.660Z,16.00
2019-04-28T12:14:13.059Z,16.00
2019-04-28T12:17:03.134Z,16.10
2019-04-28T12:19:39.957Z,16.10
2019-04-28T12:22:08.886Z,16.10
2019-04-28T12:24:37.986Z,16.00
2019-04-28T12:27:07.076Z,15.90
2019-04-28T12:29:36.157Z,15.80
2019-04-28T12:32:05.258Z,15.80
2019-04-28T12:34:34.345Z,15.70
2019-04-28T12:37:03.653Z,15.60
2019-04-28T12:39:32.803Z,15.60
2019-04-28T12:42:01.841Z,15.60
2019-04-28T12:44:30.860Z,15.50
2019-04-28T12:47:00.084Z,15.40
2019-04-28T12:49:51.235Z,15.30
2019-04-28T12:52:20.462Z,15.30
2019-04-28T12:54:49.607Z,15.30
2019-04-28T12:57:18.811Z,15.20
2019-04-28T12:59:53.276Z,15.20
2019-04-28T13:02:53.818Z,15.20
2019-04-28T13:05:23.210Z,15.20
2019-04-28T13:07:52.480Z,15.30
2019-04-28T13:10:21.645Z,15.20
2019-04-28T13:12:50.767Z,15.20
2019-04-28T13:15:19.998Z,15.10
2019-04-28T13:17:49.118Z,15.10
2019-04-28T13:20:18.217Z,15.10
2019-04-28T13:22:47.230Z,15.10
2019-04-28T13:25:16.483Z,15.00
2019-04-28T13:27:45.521Z,15.00
2019-04-28T13:30:14.792Z,15.00
2019-04-28T13:32:43.999Z,15.10
2019-04-28T13:35:13.271Z,15.20
2019-04-28T13:37:42.348Z,15.30
2019-04-28T13:40:16.927Z,15.20
2019-04-28T13:42:46.126Z,15.30
2019-04-28T13:45:18.916Z,15.30
2019-04-28T13:47:47.974Z,15.40
2019-04-28T13:50:22.485Z,15.40
2019-04-28T13:52:51.592Z,15.40
2019-04-28T13:55:36.551Z,15.40
2019-04-28T13:58:05.746Z,15.40
2019-04-28T14:01:00.035Z,15.40
2019-04-28T14:03:40.406Z,15.40
2019-04-28T14:06:11.991Z,15.40
2019-04-28T14:08:41.016Z,15.40
2019-04-28T14:11:10.166Z,15.40
2019-04-28T14:13:39.343Z,15.30
2019-04-28T14:16:08.560Z,15.30
2019-04-28T14:18:37.810Z,15.30
2019-04-28T14:21:07.986Z,15.30
2019-04-28T14:23:37.325Z,15.30
2019-04-28T14:26:06.568Z,15.30
2019-04-28T14:28:35.791Z,15.40
2019-04-28T14:31:05.033Z,15.40
2019-04-28T14:33:34.092Z,15.40
2019-04-28T14:36:03.351Z,15.40
2019-04-28T14:38:32.449Z,15.50
2019-04-28T14:41:01.592Z,15.50
2019-04-28T14:43:30.741Z,15.50
2019-04-28T14:45:59.988Z,15.60
2019-04-28T14:48:29.004Z,15.80
2019-04-28T14:50:58.235Z,15.90
2019-04-28T14:53:27.153Z,16.00
2019-04-28T14:55:56.180Z,16.00
2019-04-28T14:58:25.190Z,16.10
2019-04-28T15:00:58.845Z,16.20
2019-04-28T15:03:29.099Z,16.30
2019-04-28T15:06:03.641Z,16.40
2019-04-28T15:08:50.498Z,16.30
2019-04-28T15:11:32.961Z,16.30
2019-04-28T15:14:01.983Z,16.30
2019-04-28T15:16:31.129Z,16.40
2019-04-28T15:19:00.061Z,16.40
2019-04-28T15:21:29.110Z,16.50
2019-04-28T15:23:57.969Z,16.60
2019-04-28T15:26:26.941Z,16.50
2019-04-28T15:28:55.788Z,16.60
2019-04-28T15:31:24.688Z,16.70
2019-04-28T15:33:53.553Z,16.70
2019-04-28T15:36:22.477Z,16.80
2019-04-28T15:38:51.338Z,16.80
2019-04-28T15:41:21.804Z,16.80
2019-04-28T15:43:50.890Z,16.70
2019-04-28T15:46:19.933Z,16.70
2019-04-28T15:48:48.862Z,16.70
2019-04-28T15:51:17.881Z,16.80
2019-04-28T15:53:48.943Z,16.80
2019-04-28T15:56:29.489Z,16.90
2019-04-28T15:58:58.413Z,16.90
2019-04-28T16:01:27.337Z,16.90
2019-04-28T16:03:56.283Z,17.00
2019-04-28T16:06:25.209Z,17.10
2019-04-28T16:08:54.143Z,17.10
2019-04-28T16:11:23.273Z,17.00
2019-04-28T16:13:52.285Z,17.00
2019-04-28T16:16:21.375Z,16.90
2019-04-28T16:18:50.422Z,16.80
2019-04-28T16:21:19.439Z,16.80
2019-04-28T16:23:48.299Z,16.90
2019-04-28T16:26:17.392Z,16.90
2019-04-28T16:28:46.457Z,16.90
2019-04-28T16:31:15.732Z,17.00
2019-04-28T16:33:44.670Z,17.00
2019-04-28T16:36:13.650Z,17.00
2019-04-28T16:38:42.588Z,16.90
2019-04-28T16:41:25.086Z,17.00
2019-04-28T16:44:30.394Z,16.90
2019-04-28T16:46:59.411Z,17.00
2019-04-28T16:49:28.458Z,17.00
2019-04-28T16:51:57.327Z,17.00
2019-04-28T16:54:26.335Z,17.00
2019-04-28T16:57:05.638Z,16.90
2019-04-28T16:59:53.404Z,16.90
2019-04-28T17:02:28.159Z,16.90
2019-04-28T17:04:57.038Z,16.90
2019-04-28T17:07:26.072Z,16.90
2019-04-28T17:09:54.914Z,16.80
2019-04-28T17:12:24.066Z,16.80
2019-04-28T17:14:52.897Z,16.90
2019-04-28T17:17:21.837Z,16.80
2019-04-28T17:19:50.851Z,16.70
2019-04-28T17:22:19.693Z,16.70
2019-04-28T17:24:48.646Z,16.70
2019-04-28T17:27:17.763Z,16.70
2019-04-28T17:29:46.621Z,16.70
2019-04-28T17:32:16.116Z,16.70
2019-04-28T17:34:45.122Z,16.70
2019-04-28T17:37:15.045Z,16.70
2019-04-28T17:39:44.041Z,16.70
2019-04-28T17:42:14.181Z,16.70
2019-04-28T17:44:43.210Z,16.70
2019-04-28T17:47:13.305Z,16.70
2019-04-28T17:49:42.140Z,16.70
2019-04-28T17:52:11.138Z,16.70
2019-04-28T17:54:39.963Z,16.70
2019-04-28T17:57:08.941Z,16.70
2019-04-28T17:59:38.063Z,16.70
2019-04-28T18:02:26.180Z,16.70
2019-04-28T18:05:20.090Z,16.60
2019-04-28T18:07:51.741Z,16.60
2019-04-28T18:10:22.376Z,16.60
2019-04-28T18:13:00.406Z,16.60
2019-04-28T18:15:43.704Z,16.60
2019-04-28T18:18:37.911Z,16.60
2019-04-28T18:21:06.921Z,16.50
2019-04-28T18:23:35.936Z,16.50
2019-04-28T18:26:04.911Z,16.40
2019-04-28T18:28:33.888Z,16.40
2019-04-28T18:31:34.458Z,16.40
2019-04-28T18:34:21.283Z,16.40
2019-04-28T18:37:10.057Z,16.30
2019-04-28T18:39:57.086Z,16.30
2019-04-28T18:42:32.977Z,16.20
2019-04-28T18:45:01.855Z,16.20
2019-04-28T18:47:30.754Z,16.10
2019-04-28T18:49:59.623Z,16.00
2019-04-28T18:52:28.451Z,15.90
2019-04-28T18:54:57.323Z,15.80
2019-04-28T18:57:26.318Z,15.80
2019-04-28T18:59:55.305Z,15.70
2019-04-28T19:02:30.812Z,15.70
2019-04-28T19:04:59.623Z,15.70
2019-04-28T19:07:52.986Z,15.70
2019-04-28T19:10:35.528Z,15.70
2019-04-28T19:13:23.115Z,15.60
2019-04-28T19:16:11.210Z,15.60
2019-04-28T19:18:41.914Z,15.60
2019-04-28T19:21:10.914Z,15.60
2019-04-28T19:23:39.965Z,15.60
2019-04-28T19:26:09.055Z,15.60
2019-04-28T19:28:38.039Z,15.60
2019-04-28T19:31:06.971Z,15.70
2019-04-28T19:33:35.971Z,15.70
2019-04-28T19:36:04.945Z,15.70
2019-04-28T19:38:33.970Z,15.80
2019-04-28T19:41:03.026Z,15.80
2019-04-28T19:43:31.890Z,15.80
2019-04-28T19:46:02.632Z,15.80
2019-04-28T19:48:31.610Z,15.70
2019-04-28T19:51:00.716Z,15.60
2019-04-28T19:53:31.837Z,15.60
2019-04-28T19:56:05.991Z,15.50
2019-04-28T19:58:39.454Z,15.50
2019-04-28T20:01:13.940Z,15.50
2019-04-28T20:03:42.939Z,15.50
2019-04-28T20:06:11.826Z,15.40
2019-04-28T20:08:40.673Z,15.40
2019-04-28T20:11:09.596Z,15.40
2019-04-28T20:13:38.502Z,15.40
2019-04-28T20:16:07.452Z,15.40
2019-04-28T20:18:36.544Z,15.30
2019-04-28T20:21:05.360Z,15.30
2019-04-28T20:23:34.218Z,15.30
2019-04-28T20:26:03.202Z,15.30
2019-04-28T20:28:32.153Z,15.30
2019-04-28T20:31:01.191Z,15.30
2019-04-28T20:33:30.198Z,15.20
2019-04-28T20:36:03.847Z,15.20
2019-04-28T20:38:33.573Z,15.20
2019-04-28T20:41:21.876Z,15.30
2019-04-28T20:43:50.827Z,15.30
2019-04-28T20:46:19.698Z,15.10
2019-04-28T20:48:48.537Z,15.10
2019-04-28T20:51:17.398Z,15.10
2019-04-28T20:53:46.388Z,15.10
2019-04-28T20:56:15.402Z,15.10
2019-04-28T20:58:44.314Z,15.10
2019-04-28T21:01:13.175Z,15.10
2019-04-28T21:03:42.079Z,15.00
2019-04-28T21:06:10.989Z,15.00
2019-04-28T21:08:39.911Z,15.00
2019-04-28T21:11:08.793Z,15.00
2019-04-28T21:13:37.818Z,14.90
2019-04-28T21:16:06.738Z,14.90
2019-04-28T21:18:35.630Z,14.80
2019-04-28T21:21:04.620Z,14.80
2019-04-28T21:23:33.462Z,14.70
2019-04-28T21:26:02.439Z,14.70
2019-04-28T21:28:31.357Z,14.70
2019-04-28T21:31:00.173Z,14.60
2019-04-28T21:33:29.299Z,14.60
2019-04-28T21:35:58.159Z,14.60
2019-04-28T21:38:27.094Z,14.60
2019-04-28T21:40:56.006Z,14.60
2019-04-28T21:43:37.168Z,14.60
2019-04-28T21:46:22.085Z,14.60
2019-04-28T21:48:53.397Z,14.60
2019-04-28T21:51:22.327Z,14.50
2019-04-28T21:53:51.206Z,14.50
2019-04-28T21:56:20.053Z,14.50
2019-04-28T21:58:49.060Z,14.50
2019-04-28T22:01:21.289Z,14.50
2019-04-28T22:03:50.374Z,14.40
2019-04-28T22:06:19.326Z,14.40
2019-04-28T22:08:48.257Z,14.40
2019-04-28T22:11:17.245Z,14.40
2019-04-28T22:13:46.118Z,14.40
2019-04-28T22:16:14.958Z,14.40
2019-04-28T22:18:43.977Z,14.30
2019-04-28T22:21:12.854Z,14.30
2019-04-28T22:23:48.796Z,14.30
2019-04-28T22:26:36.787Z,14.30
2019-04-28T22:29:05.785Z,14.30
2019-04-28T22:31:34.730Z,14.30
2019-04-28T22:34:03.658Z,14.30
2019-04-28T22:36:32.690Z,14.30
2019-04-28T22:39:05.298Z,14.30
2019-04-28T22:41:34.336Z,14.30
2019-04-28T22:44:03.354Z,14.30
2019-04-28T22:46:32.256Z,14.30
2019-04-28T22:49:03.189Z,14.30
2019-04-28T22:51:32.285Z,14.30
2019-04-28T22:54:04.046Z,14.20
2019-04-28T22:56:36.869Z,14.20
2019-04-28T22:59:11.002Z,14.20
2019-04-28T23:01:42.841Z,14.20
2019-04-28T23:04:29.540Z,14.20
2019-04-28T23:06:58.749Z,14.20
2019-04-28T23:09:27.757Z,14.20
2019-04-28T23:11:56.699Z,14.20
2019-04-28T23:14:25.642Z,14.20
2019-04-28T23:16:54.578Z,14.20
2019-04-28T23:19:25.521Z,14.20
2019-04-28T23:22:15.171Z,14.20
2019-04-28T23:24:44.115Z,14.20
2019-04-28T23:27:13.142Z,14.20
2019-04-28T23:29:42.134Z,14.10
2019-04-28T23:32:11.187Z,14.20
2019-04-28T23:34:40.039Z,14.20
2019-04-28T23:37:08.972Z,14.20
2019-04-28T23:39:37.838Z,14.20
2019-04-28T23:42:24.850Z,14.10
2019-04-28T23:44:53.682Z,14.10
2019-04-28T23:47:22.541Z,14.10
2019-04-28T23:49:51.530Z,14.10
2019-04-28T23:52:39.509Z,14.10
2019-04-28T23:55:08.832Z,14.10
2019-04-28T23:57:37.802Z,14.10
